< < Back
Terminal Aerodrome Forecast


Current Version              Previous Versions:   1  2  3  4  5  6  7  8  9  

Terminal Aerodrome Forecast

812
FTUS42 KILM 041209 AAA
TAFILM
TAF AMD
KILM 041209Z 0412/0512 25003KT P6SM VCSH BKN060
      TEMPO 0412/0414 4SM SHRA BKN035
     FM041400 26009G17KT P6SM BKN050
     FM042100 24011G18KT P6SM SCT050 PROB30 0421/0424 4SM SHRA
      BKN050
     FM050300 26003KT 4SM BR SKC=

Latest METAR

421
SAUS70 KWBC 041900 RRF
MTRILM
METAR KILM 041853Z AUTO 24009G18KT 10SM FEW060 SCT070 26/14 A2957 RMK
AO2 SLP014 T02610139


USA.gov is the U.S. government's official web portal to all federal, state and local government web resources and services.